createdAt,value
2023-01-10T00:00:54.490Z,100946.66
2023-01-10T00:03:24.337Z,100962.06
2023-01-10T00:05:54.748Z,100899.16
2023-01-10T00:08:24.952Z,100959.41
2023-01-10T00:10:54.512Z,100929.38
2023-01-10T00:13:28.320Z,100958.09
2023-01-10T00:15:58.784Z,100965.97
2023-01-10T00:18:28.378Z,100963.50
2023-01-10T00:21:01.065Z,100927.13
2023-01-10T00:23:30.172Z,100943.44
2023-01-10T00:25:59.279Z,100957.72
2023-01-10T00:28:28.662Z,100966.47
2023-01-10T00:31:01.622Z,100958.34
2023-01-10T00:33:32.162Z,100978.53
2023-01-10T00:36:03.680Z,100956.88
2023-01-10T00:38:35.747Z,100926.13
2023-01-10T00:41:28.831Z,100933.91
2023-01-10T00:43:57.145Z,100961.91
2023-01-10T00:46:29.752Z,100928.84
2023-01-10T00:49:08.510Z,100957.09
2023-01-10T00:51:38.961Z,100867.13
2023-01-10T00:54:08.010Z,100964.03
2023-01-10T00:56:37.448Z,100964.75
2023-01-10T00:59:07.399Z,100939.97
2023-01-10T01:01:36.879Z,100928.47
2023-01-10T01:04:06.377Z,100959.41
2023-01-10T01:06:35.596Z,100955.66
2023-01-10T01:09:06.029Z,100900.69
2023-01-10T01:11:35.069Z,100964.09
2023-01-10T01:14:04.688Z,100950.69
2023-01-10T01:16:34.262Z,100949.88
2023-01-10T01:19:05.787Z,100921.09
2023-01-10T01:21:35.058Z,100964.56
2023-01-10T01:24:05.960Z,100870.94
2023-01-10T01:26:35.990Z,100963.97
2023-01-10T01:29:05.510Z,100954.41
2023-01-10T01:31:34.743Z,100955.59
2023-01-10T01:34:04.183Z,100935.81
2023-01-10T01:36:34.832Z,100965.91
2023-01-10T01:39:07.622Z,100965.06
2023-01-10T01:41:55.868Z,100960.78
2023-01-10T01:44:26.387Z,100914.28
2023-01-10T01:47:04.250Z,100920.25
2023-01-10T01:49:36.965Z,100951.66
2023-01-10T01:52:10.933Z,100925.00
2023-01-10T01:54:41.475Z,100966.22
2023-01-10T01:57:15.179Z,100966.53
2023-01-10T01:59:48.469Z,100944.91
2023-01-10T02:02:22.093Z,100951.09
2023-01-10T02:04:55.056Z,100969.25
2023-01-10T02:07:26.456Z,100971.41
2023-01-10T02:10:01.594Z,100947.31
2023-01-10T02:12:33.234Z,100965.78
2023-01-10T02:15:03.713Z,100879.03
2023-01-10T02:17:33.600Z,100932.69
2023-01-10T02:20:07.239Z,100954.06
2023-01-10T02:23:03.749Z,100954.47
2023-01-10T02:25:57.584Z,100958.66
2023-01-10T02:29:01.260Z,100912.28
2023-01-10T02:31:44.452Z,100931.00
2023-01-10T02:34:21.928Z,100941.72
2023-01-10T02:37:01.517Z,100942.47
2023-01-10T02:39:38.204Z,100969.63
2023-01-10T02:42:10.573Z,100970.19
2023-01-10T02:44:46.766Z,100987.63
2023-01-10T02:47:16.066Z,100982.38
2023-01-10T02:49:48.550Z,100982.09
2023-01-10T02:52:22.472Z,100964.84
2023-01-10T02:54:55.970Z,100882.66
2023-01-10T02:57:37.044Z,100981.94
2023-01-10T03:00:32.645Z,100952.69
2023-01-10T03:03:17.525Z,100993.00
2023-01-10T03:05:58.104Z,100991.38
2023-01-10T03:08:35.276Z,100948.25
2023-01-10T03:11:07.955Z,100970.66
2023-01-10T03:13:44.823Z,100980.47
2023-01-10T03:16:16.857Z,101003.72
2023-01-10T03:18:52.029Z,101000.50
2023-01-10T03:21:25.770Z,101015.31
2023-01-10T03:23:58.659Z,101023.78
2023-01-10T03:26:32.387Z,100991.91
2023-01-10T03:29:03.860Z,101033.63
2023-01-10T03:31:43.443Z,101010.66
2023-01-10T03:34:13.429Z,101027.97
2023-01-10T03:36:54.027Z,101028.88
2023-01-10T03:39:32.403Z,101015.72
2023-01-10T03:42:10.425Z,100989.75
2023-01-10T03:44:48.623Z,100985.84
2023-01-10T03:47:27.530Z,101029.69
2023-01-10T03:50:00.158Z,101013.78
2023-01-10T03:52:33.987Z,100993.06
2023-01-10T03:55:05.523Z,101000.31
2023-01-10T03:57:36.070Z,101018.66
2023-01-10T04:00:06.417Z,101015.09
2023-01-10T04:02:36.421Z,100986.75
2023-01-10T04:05:07.518Z,101028.16
2023-01-10T04:07:37.899Z,101031.91
2023-01-10T04:10:10.661Z,101026.75
2023-01-10T04:12:39.845Z,101038.09
2023-01-10T04:15:09.641Z,101050.78
2023-01-10T04:17:39.094Z,101010.53
2023-01-10T04:20:14.470Z,101018.16
2023-01-10T04:22:46.473Z,101052.84
2023-01-10T04:25:18.585Z,101060.63
2023-01-10T04:27:49.964Z,101044.94
2023-01-10T04:30:20.285Z,100983.69
2023-01-10T04:32:49.906Z,100998.38
2023-01-10T04:35:19.054Z,101065.31
2023-01-10T04:37:50.315Z,101010.19
2023-01-10T04:40:28.866Z,101050.25
2023-01-10T04:42:58.439Z,101043.91
2023-01-10T04:45:27.778Z,101067.13
2023-01-10T04:47:57.227Z,101052.06
2023-01-10T04:50:26.360Z,101070.72
2023-01-10T04:52:56.886Z,101078.16
2023-01-10T04:55:26.299Z,101086.06
2023-01-10T04:57:55.545Z,101099.03
2023-01-10T05:00:25.041Z,101067.03
2023-01-10T05:02:57.502Z,101106.06
2023-01-10T05:05:26.983Z,101078.22
2023-01-10T05:07:58.679Z,101093.13
2023-01-10T05:10:28.363Z,101099.19
2023-01-10T05:12:57.689Z,101072.25
2023-01-10T05:15:28.454Z,101061.91
2023-01-10T05:17:59.724Z,101092.84
2023-01-10T05:20:29.250Z,101086.47
2023-01-10T05:22:59.835Z,101092.59
2023-01-10T05:25:29.173Z,101109.97
2023-01-10T05:27:58.155Z,101007.19
2023-01-10T05:30:27.418Z,101108.44
2023-01-10T05:32:56.771Z,101109.34
2023-01-10T05:35:26.034Z,101096.59
2023-01-10T05:37:55.252Z,101111.53
2023-01-10T05:40:25.646Z,101128.69
2023-01-10T05:42:56.485Z,101111.53
2023-01-10T05:45:25.631Z,101061.34
2023-01-10T05:47:55.083Z,101127.03
2023-01-10T05:50:24.243Z,101137.47
2023-01-10T05:52:53.367Z,101133.28
2023-01-10T05:55:22.673Z,101126.34
2023-01-10T05:57:53.614Z,101140.16
2023-01-10T06:00:25.076Z,101139.38
2023-01-10T06:02:56.394Z,101144.84
2023-01-10T06:05:26.373Z,101161.38
2023-01-10T06:07:56.175Z,101139.84
2023-01-10T06:10:27.009Z,101171.09
2023-01-10T06:12:58.005Z,101146.69
2023-01-10T06:15:28.490Z,101158.91
2023-01-10T06:17:57.931Z,101158.97
2023-01-10T06:20:27.371Z,101063.72
2023-01-10T06:22:58.893Z,101155.31
2023-01-10T06:25:31.471Z,101076.63
2023-01-10T06:28:04.718Z,101156.47
2023-01-10T06:30:35.360Z,101162.59
2023-01-10T06:33:07.308Z,101176.44
2023-01-10T06:35:37.916Z,101140.03
2023-01-10T06:38:07.591Z,101182.53
2023-01-10T06:40:37.342Z,101186.00
2023-01-10T06:43:09.180Z,101199.88
2023-01-10T06:45:39.230Z,101197.28
2023-01-10T06:48:17.226Z,101199.00
2023-01-10T06:50:48.565Z,100854.13
2023-01-10T06:54:21.320Z,101213.75
2023-01-10T06:56:51.275Z,101129.66
2023-01-10T06:59:26.969Z,101214.63
2023-01-10T07:01:56.899Z,101139.19
2023-01-10T07:04:27.023Z,101176.44
2023-01-10T07:06:56.402Z,101213.72
2023-01-10T07:09:26.458Z,101223.28
2023-01-10T07:11:55.820Z,101228.53
2023-01-10T07:14:27.605Z,101188.63
2023-01-10T07:16:57.509Z,101226.81
2023-01-10T07:19:27.359Z,101239.81
2023-01-10T07:21:56.688Z,101188.63
2023-01-10T07:24:29.700Z,101248.47
2023-01-10T07:27:02.111Z,101207.69
2023-01-10T07:29:33.184Z,101252.78
2023-01-10T07:32:21.515Z,101251.91
2023-01-10T07:34:56.091Z,101057.75
2023-01-10T07:37:29.900Z,101253.66
2023-01-10T07:40:04.891Z,101156.53
2023-01-10T07:42:42.981Z,101152.22
2023-01-10T07:45:16.373Z,101216.34
2023-01-10T07:47:45.588Z,101180.81
2023-01-10T07:50:36.124Z,101263.16
2023-01-10T07:53:07.559Z,101270.16
2023-01-10T07:55:42.142Z,101260.59
2023-01-10T07:58:22.294Z,101231.94
2023-01-10T08:00:59.659Z,101169.50
2023-01-10T08:03:31.200Z,101269.19
2023-01-10T08:06:03.564Z,101192.06
2023-01-10T08:08:34.610Z,101272.72
2023-01-10T08:11:06.249Z,101218.06
2023-01-10T08:13:36.089Z,101197.28
2023-01-10T08:16:09.367Z,101265.66
2023-01-10T08:18:43.234Z,101272.59
2023-01-10T08:21:14.568Z,101273.34
2023-01-10T08:23:46.842Z,101280.50
2023-01-10T08:26:17.406Z,101202.47
2023-01-10T08:28:47.303Z,101262.19
2023-01-10T08:31:19.085Z,101276.72
2023-01-10T08:33:57.741Z,101253.41
2023-01-10T08:36:41.042Z,101261.31
2023-01-10T08:39:15.520Z,101283.94
2023-01-10T08:41:47.796Z,101236.06
2023-01-10T08:44:20.505Z,101276.81
2023-01-10T08:47:01.194Z,101275.16
2023-01-10T08:49:31.302Z,101279.50
2023-01-10T08:52:02.493Z,101239.84
2023-01-10T08:54:33.206Z,101258.25
2023-01-10T08:57:06.295Z,101262.78
2023-01-10T08:59:39.462Z,101231.94
2023-01-10T09:02:15.088Z,101257.56
2023-01-10T09:04:47.744Z,101269.47
2023-01-10T09:07:17.879Z,101259.81
2023-01-10T09:09:47.608Z,101180.28
2023-01-10T09:12:37.323Z,101254.38
2023-01-10T09:15:11.791Z,101205.56
2023-01-10T09:17:45.663Z,101192.06
2023-01-10T09:20:15.815Z,101252.13
2023-01-10T09:22:45.137Z,101250.78
2023-01-10T09:25:17.414Z,101216.72
2023-01-10T09:27:46.938Z,101259.13
2023-01-10T09:30:20.460Z,101239.19
2023-01-10T09:32:54.162Z,101275.41
2023-01-10T09:35:24.763Z,101273.63
2023-01-10T09:37:56.359Z,100938.38
2023-01-10T09:40:44.651Z,101270.84
2023-01-10T09:43:23.090Z,101240.06
2023-01-10T09:46:01.374Z,101212.34
2023-01-10T09:48:42.047Z,101269.56
2023-01-10T09:51:25.040Z,101182.16
2023-01-10T09:54:10.711Z,101276.59
2023-01-10T09:56:43.054Z,101246.84
2023-01-10T09:59:17.098Z,101281.97
2023-01-10T10:01:48.450Z,101277.13
2023-01-10T10:04:25.403Z,101266.94
2023-01-10T10:06:56.421Z,101265.19
2023-01-10T10:09:30.204Z,101270.72
2023-01-10T10:12:15.671Z,101262.94
2023-01-10T10:14:58.707Z,101272.59
2023-01-10T10:17:39.187Z,101255.94
2023-01-10T10:20:24.104Z,101240.47
2023-01-10T10:23:06.230Z,101264.34
2023-01-10T10:26:02.873Z,101253.13
2023-01-10T10:29:20.137Z,101224.22
2023-01-10T10:32:02.001Z,101234.91
2023-01-10T10:34:36.805Z,101223.72
2023-01-10T10:37:15.698Z,101194.25
2023-01-10T10:39:48.745Z,101271.03
2023-01-10T10:42:20.201Z,101236.50
2023-01-10T10:44:54.572Z,101144.09
2023-01-10T10:47:25.788Z,101267.41
2023-01-10T10:50:00.927Z,101258.06
2023-01-10T10:52:35.943Z,101256.00
2023-01-10T10:55:07.624Z,101268.03
2023-01-10T10:57:43.462Z,101192.72
2023-01-10T11:00:24.206Z,101256.16
2023-01-10T11:02:59.549Z,101229.00
2023-01-10T11:05:40.561Z,101270.19
2023-01-10T11:08:34.436Z,100897.47
2023-01-10T11:11:12.493Z,101118.50
2023-01-10T11:13:48.784Z,101272.59
2023-01-10T11:16:31.164Z,101242.00
2023-01-10T11:19:23.427Z,101243.31
2023-01-10T11:21:57.156Z,101254.31
2023-01-10T11:24:34.583Z,101280.84
2023-01-10T11:27:15.818Z,101282.00
2023-01-10T11:29:48.700Z,101218.81
2023-01-10T11:32:22.339Z,101271.56
2023-01-10T11:34:55.379Z,101217.69
2023-01-10T11:37:29.581Z,101264.06
2023-01-10T11:40:24.172Z,101251.72
2023-01-10T11:43:00.786Z,101218.34
2023-01-10T11:45:33.458Z,101280.72
2023-01-10T11:48:09.747Z,101254.41
2023-01-10T11:50:46.096Z,101260.78
2023-01-10T11:53:35.313Z,101210.19
2023-01-10T11:56:08.014Z,101237.63
2023-01-10T11:58:38.461Z,101231.38
2023-01-10T12:01:08.549Z,101278.47
2023-01-10T12:03:40.311Z,101271.44
2023-01-10T12:06:18.010Z,101236.28
2023-01-10T12:08:49.943Z,101269.53
2023-01-10T12:11:30.053Z,101243.19
2023-01-10T12:14:01.720Z,101252.75
2023-01-10T12:16:35.624Z,101218.78
2023-01-10T12:19:14.105Z,101249.09
2023-01-10T12:21:46.756Z,101248.13
2023-01-10T12:24:24.038Z,101281.56
2023-01-10T12:27:00.833Z,101242.19
2023-01-10T12:29:35.511Z,101281.97
2023-01-10T12:32:09.235Z,101285.00
2023-01-10T12:34:45.514Z,101260.72
2023-01-10T12:37:20.636Z,101271.94
2023-01-10T12:39:54.930Z,101244.03
2023-01-10T12:42:55.572Z,101296.00
2023-01-10T12:45:28.326Z,101268.59
2023-01-10T12:48:05.020Z,101258.94
2023-01-10T12:50:40.752Z,101255.78
2023-01-10T12:53:26.783Z,101230.50
2023-01-10T12:55:59.545Z,101310.28
2023-01-10T12:58:37.241Z,101292.25
2023-01-10T13:01:08.611Z,101300.97
2023-01-10T13:03:39.793Z,101282.75
2023-01-10T13:06:12.482Z,101279.50
2023-01-10T13:08:43.736Z,101316.09
2023-01-10T13:11:16.822Z,101304.28
2023-01-10T13:13:55.813Z,101322.19
2023-01-10T13:16:32.905Z,101327.03
2023-01-10T13:19:05.897Z,101327.50
2023-01-10T13:21:36.347Z,101328.63
2023-01-10T13:24:08.197Z,101279.25
2023-01-10T13:26:51.203Z,101317.69
2023-01-10T13:29:24.215Z,101323.44
2023-01-10T13:31:57.666Z,101285.81
2023-01-10T13:34:33.934Z,101295.94
2023-01-10T13:37:06.390Z,101278.25
2023-01-10T13:39:38.165Z,101321.91
2023-01-10T13:42:48.220Z,101334.06
2023-01-10T13:45:24.580Z,101321.50
2023-01-10T13:48:35.019Z,101302.91
2023-01-10T13:51:19.013Z,101341.47
2023-01-10T13:54:06.601Z,101323.88
2023-01-10T13:56:38.065Z,101266.53
2023-01-10T13:59:31.082Z,101334.91
2023-01-10T14:02:21.701Z,101343.72
2023-01-10T14:04:54.639Z,101324.13
2023-01-10T14:07:28.455Z,101352.66
2023-01-10T14:10:03.736Z,101354.22
2023-01-10T14:12:36.988Z,101345.56
2023-01-10T14:15:24.637Z,101356.66
2023-01-10T14:18:08.590Z,101365.56
2023-01-10T14:20:38.467Z,101346.28
2023-01-10T14:23:10.768Z,101357.72
2023-01-10T14:25:40.567Z,101345.63
2023-01-10T14:28:22.035Z,101356.19
2023-01-10T14:31:01.066Z,101353.97
2023-01-10T14:33:33.328Z,101353.63
2023-01-10T14:36:07.787Z,101347.56
2023-01-10T14:38:40.068Z,101316.88
2023-01-10T14:41:13.987Z,101308.97
2023-01-10T14:43:47.155Z,101346.78
2023-01-10T14:46:20.496Z,101342.69
2023-01-10T14:48:52.536Z,101334.03
2023-01-10T14:51:24.755Z,101328.94
2023-01-10T14:53:58.702Z,101360.28
2023-01-10T14:56:37.301Z,101303.75
2023-01-10T14:59:19.380Z,101321.91
2023-01-10T15:01:49.599Z,101304.84
2023-01-10T15:04:22.892Z,101361.22
2023-01-10T15:06:53.775Z,101334.16
2023-01-10T15:09:24.264Z,101361.03
2023-01-10T15:11:56.101Z,101369.97
2023-01-10T15:14:27.735Z,101347.38
2023-01-10T15:17:02.374Z,101371.50
2023-01-10T15:19:37.312Z,101364.66
2023-01-10T15:22:19.490Z,101363.03
2023-01-10T15:24:59.674Z,101361.28
2023-01-10T15:27:29.491Z,101311.59
2023-01-10T15:29:59.937Z,101376.75
2023-01-10T15:32:34.220Z,101370.25
2023-01-10T15:35:06.540Z,101337.66
2023-01-10T15:37:41.003Z,101333.16
2023-01-10T15:40:23.051Z,101372.00
2023-01-10T15:42:53.582Z,101327.06
2023-01-10T15:45:31.155Z,101339.25
2023-01-10T15:48:04.238Z,101362.88
2023-01-10T15:50:39.414Z,101331.59
2023-01-10T15:53:11.001Z,101368.72
2023-01-10T15:55:45.436Z,101369.66
2023-01-10T15:58:20.001Z,101345.50
2023-01-10T16:00:51.094Z,101333.91
2023-01-10T16:03:25.864Z,101375.75
2023-01-10T16:05:59.309Z,101371.13
2023-01-10T16:08:32.783Z,101349.13
2023-01-10T16:11:04.738Z,101343.53
2023-01-10T16:13:34.227Z,101378.22
2023-01-10T16:16:11.619Z,101376.44
2023-01-10T16:18:40.845Z,101377.38
2023-01-10T16:21:13.927Z,101375.91
2023-01-10T16:23:46.258Z,101351.41
2023-01-10T16:26:16.665Z,101377.47
2023-01-10T16:28:46.392Z,101350.50
2023-01-10T16:31:15.989Z,101354.19
2023-01-10T16:33:46.750Z,101355.91
2023-01-10T16:36:20.945Z,101342.81
2023-01-10T16:38:50.436Z,101341.88
2023-01-10T16:41:37.057Z,101359.25
2023-01-10T16:44:06.518Z,101373.16
2023-01-10T16:46:36.369Z,101337.59
2023-01-10T16:49:06.768Z,101355.84
2023-01-10T16:51:40.857Z,101348.81
2023-01-10T16:54:15.822Z,101370.44
2023-01-10T16:56:45.478Z,101274.31
2023-01-10T16:59:16.203Z,101363.63
2023-01-10T17:01:50.292Z,101348.84
2023-01-10T17:04:23.795Z,101360.84
2023-01-10T17:06:56.777Z,101352.53
2023-01-10T17:09:28.029Z,101336.81
2023-01-10T17:12:02.449Z,101359.59
2023-01-10T17:14:32.871Z,101329.69
2023-01-10T17:17:04.993Z,101373.19
2023-01-10T17:19:34.835Z,101362.81
2023-01-10T17:22:05.767Z,101373.13
2023-01-10T17:24:36.115Z,101376.81
2023-01-10T17:27:06.898Z,101363.78
2023-01-10T17:29:37.004Z,101351.50
2023-01-10T17:32:06.967Z,101382.78
2023-01-10T17:34:38.630Z,101382.97
2023-01-10T17:37:11.976Z,101379.63
2023-01-10T17:39:42.619Z,101397.53
2023-01-10T17:42:18.956Z,101401.03
2023-01-10T17:44:49.455Z,101337.97
2023-01-10T17:47:19.433Z,101394.06
2023-01-10T17:49:54.202Z,101406.47
2023-01-10T17:52:25.233Z,101317.94
2023-01-10T17:54:54.505Z,101405.91
2023-01-10T17:57:25.351Z,101410.06
2023-01-10T17:59:54.952Z,101396.94
2023-01-10T18:02:24.868Z,101356.19
2023-01-10T18:04:54.467Z,101387.41
2023-01-10T18:07:26.144Z,101398.75
2023-01-10T18:09:56.936Z,101388.47
2023-01-10T18:12:29.814Z,101368.47
2023-01-10T18:15:00.174Z,101303.41
2023-01-10T18:17:30.373Z,101400.97
2023-01-10T18:20:00.115Z,101376.47
2023-01-10T18:22:48.454Z,101394.75
2023-01-10T18:25:17.886Z,101413.97
2023-01-10T18:27:51.564Z,101415.72
2023-01-10T18:30:24.650Z,101422.75
2023-01-10T18:32:56.093Z,101401.00
2023-01-10T18:35:52.483Z,101421.03
2023-01-10T18:38:24.950Z,101062.94
2023-01-10T18:40:55.272Z,101439.28
2023-01-10T18:43:25.392Z,101265.81
2023-01-10T18:46:18.633Z,101432.34
2023-01-10T18:48:50.742Z,101439.44
2023-01-10T18:51:22.891Z,100989.25
2023-01-10T18:53:56.893Z,101287.50
2023-01-10T18:56:27.355Z,101046.47
2023-01-10T18:58:59.023Z,101111.44
2023-01-10T19:01:33.176Z,101402.09
2023-01-10T19:04:07.004Z,101450.63
2023-01-10T19:06:37.856Z,101442.91
2023-01-10T19:12:02.640Z,101444.63
2023-01-10T19:14:32.363Z,101449.03
2023-01-10T19:17:03.719Z,101338.72
2023-01-10T19:19:35.764Z,101454.25
2023-01-10T19:22:05.317Z,101445.53
2023-01-10T19:24:38.046Z,101447.22
2023-01-10T19:27:09.363Z,101462.06
2023-01-10T19:29:38.999Z,101463.75
2023-01-10T19:32:10.151Z,101426.41
2023-01-10T19:35:29.642Z,101476.84
2023-01-10T19:38:01.904Z,101007.16
2023-01-10T19:40:35.186Z,101119.13
2023-01-10T19:43:05.922Z,101477.69
2023-01-10T19:45:45.343Z,101470.72
2023-01-10T19:48:18.279Z,101036.66
2023-01-10T19:50:50.720Z,101030.47
2023-01-10T19:53:51.511Z,101034.00
2023-01-10T19:57:10.750Z,101298.72
2023-01-10T19:59:58.647Z,101489.78
2023-01-10T20:02:43.781Z,101197.94
2023-01-10T20:05:18.792Z,101030.56
2023-01-10T20:07:53.769Z,101333.50
2023-01-10T20:10:28.731Z,101547.22
2023-01-10T20:13:01.173Z,101164.16
2023-01-10T20:15:37.744Z,101094.75
2023-01-10T20:18:08.018Z,101135.97
2023-01-10T20:20:41.439Z,101039.94
2023-01-10T20:23:12.731Z,101309.88
2023-01-10T20:25:43.481Z,101333.25
2023-01-10T20:28:15.419Z,101364.47
2023-01-10T20:30:46.519Z,101316.72
2023-01-10T20:33:16.841Z,101525.34
2023-01-10T20:35:56.207Z,101467.97
2023-01-10T20:38:27.927Z,101429.63
2023-01-10T20:40:58.820Z,101524.41
2023-01-10T20:43:32.987Z,101474.88
2023-01-10T20:46:06.986Z,101515.66
2023-01-10T20:48:39.332Z,101518.41
2023-01-10T20:51:13.258Z,101469.66
2023-01-10T20:53:42.971Z,101526.03
2023-01-10T20:56:16.047Z,101483.66
2023-01-10T20:58:47.763Z,101487.16
2023-01-10T21:01:28.814Z,101474.03
2023-01-10T21:04:04.172Z,101530.38
2023-01-10T21:06:36.238Z,101483.44
2023-01-10T21:09:08.953Z,101370.38
2023-01-10T21:11:56.658Z,101090.34
2023-01-10T21:14:42.512Z,101149.59
2023-01-10T21:17:13.055Z,101369.41
2023-01-10T21:19:46.315Z,101225.28
2023-01-10T21:22:18.577Z,101553.91
2023-01-10T21:24:48.712Z,101543.38
2023-01-10T21:27:18.546Z,101497.47
2023-01-10T21:29:49.407Z,101527.81
2023-01-10T21:32:21.025Z,101543.47
2023-01-10T21:34:50.676Z,101563.38
2023-01-10T21:37:20.744Z,101536.50
2023-01-10T21:39:51.175Z,101512.09
2023-01-10T21:42:38.288Z,101553.06
2023-01-10T21:45:11.577Z,101470.22
2023-01-10T21:47:41.396Z,101532.94
2023-01-10T21:50:13.407Z,101555.72
2023-01-10T21:52:43.150Z,101565.19
2023-01-10T21:55:15.057Z,101568.50
2023-01-10T21:57:45.688Z,101571.09
2023-01-10T22:00:19.473Z,101573.94
2023-01-10T22:02:58.837Z,101585.94
2023-01-10T22:05:28.677Z,101580.66
2023-01-10T22:07:59.555Z,101514.47
2023-01-10T22:10:30.513Z,101568.59
2023-01-10T22:13:00.207Z,101558.28
2023-01-10T22:15:30.937Z,101583.34
2023-01-10T22:18:01.575Z,101565.22
2023-01-10T22:20:57.395Z,101460.84
2023-01-10T22:23:29.412Z,101590.34
2023-01-10T22:26:03.383Z,101488.31
2023-01-10T22:28:33.587Z,101571.84
2023-01-10T22:31:09.313Z,101594.69
2023-01-10T22:33:47.079Z,101586.88
2023-01-10T22:36:20.154Z,101464.00
2023-01-10T22:38:50.137Z,101594.66
2023-01-10T22:41:26.665Z,101596.50
2023-01-10T22:43:57.047Z,101599.13
2023-01-10T22:46:26.842Z,101525.00
2023-01-10T22:48:55.897Z,101604.63
2023-01-10T22:51:28.521Z,101594.47
2023-01-10T22:53:59.910Z,101606.38
2023-01-10T22:56:30.088Z,101589.19
2023-01-10T22:58:59.386Z,101610.34
2023-01-10T23:01:32.787Z,101599.78
2023-01-10T23:04:02.445Z,101575.25
2023-01-10T23:06:33.470Z,101569.16
2023-01-10T23:09:04.053Z,101573.50
2023-01-10T23:11:34.730Z,101598.69
2023-01-10T23:14:04.084Z,101563.22
2023-01-10T23:16:33.121Z,101594.28
2023-01-10T23:19:02.522Z,101436.69
2023-01-10T23:21:33.964Z,101557.53
2023-01-10T23:24:07.736Z,101580.38
2023-01-10T23:26:37.845Z,101538.53
2023-01-10T23:29:07.573Z,101499.03
2023-01-10T23:31:39.169Z,101584.75
2023-01-10T23:34:09.170Z,101589.38
2023-01-10T23:36:40.086Z,101586.28
2023-01-10T23:39:09.325Z,101600.28
2023-01-10T23:41:38.840Z,101607.25
2023-01-10T23:44:08.599Z,101601.09
2023-01-10T23:46:37.879Z,101603.09
2023-01-10T23:49:07.390Z,101591.34
2023-01-10T23:51:37.568Z,101608.16
2023-01-10T23:54:08.280Z,101559.31
2023-01-10T23:56:37.388Z,101606.28
2023-01-10T23:59:06.631Z,101557.50
